Time;durP1;ratioP1;P1;durP2;ratioP2;P2;SDS_P1;SDS_P2;PMS_P1;PMS_P2;Temp;Humidity;BMP_temperature;BMP_pressure;BME280_temperature;BME280_humidity;BME280_pressure;Samples;Min_cycle;Max_cycle;Signal;HPM_P1;HPM_P2
2022/03/23 12:05:22;;;;;;;18.25;11.10;;;15.00;99.90;;;;;;5091164;28;20548;-77
2022/03/23 12:07:48;;;;;;;16.90;10.50;;;15.10;99.90;;;;;;5091066;28;20179;-78
2022/03/23 12:10:21;;;;;;;15.98;9.23;;;15.10;99.90;;;;;;5090947;28;20222;-78
2022/03/23 12:12:47;;;;;;;18.15;10.82;;;15.10;99.90;;;;;;5090987;28;20246;-77
2022/03/23 12:15:25;;;;;;;15.18;11.10;;;15.20;99.90;;;;;;5090715;28;20278;-77
2022/03/23 12:17:56;;;;;;;17.27;11.00;;;15.20;99.90;;;;;;5090847;28;20194;-77
2022/03/23 12:20:46;;;;;;;17.80;11.13;;;15.40;99.90;;;;;;5090639;28;20172;-78
2022/03/23 12:23:14;;;;;;;16.77;10.90;;;15.50;99.90;;;;;;5090707;28;20316;-78
2022/03/23 12:25:52;;;;;;;16.40;11.27;;;15.50;99.90;;;;;;5089500;28;20250;-77
2022/03/23 12:28:31;;;;;;;18.08;11.73;;;15.60;99.90;;;;;;5090734;28;20612;-77
2022/03/23 12:30:57;;;;;;;16.23;11.55;;;15.50;99.90;;;;;;5090786;28;20586;-77
2022/03/23 12:33:26;;;;;;;20.50;11.77;;;15.60;99.90;;;;;;5090829;28;20247;-79
2022/03/23 12:35:51;;;;;;;19.15;10.30;;;15.60;99.90;;;;;;5090683;28;20680;-79
2022/03/23 12:38:25;;;;;;;16.77;10.57;;;15.70;99.90;;;;;;5090554;28;20218;-81
2022/03/23 12:40:52;;;;;;;16.58;11.10;;;15.70;99.90;;;;;;5090508;28;20172;-79
2022/03/23 12:43:42;;;;;;;14.63;10.07;;;15.90;99.90;;;;;;5090518;28;20215;-79
2022/03/23 12:46:22;;;;;;;14.63;10.48;;;16.00;99.90;;;;;;5090369;28;20164;-80
2022/03/23 12:58:04;;;;;;;17.80;10.32;;;16.50;99.90;;;;;;5090389;28;20270;-79
2022/03/23 13:00:45;;;;;;;16.10;10.70;;;16.60;99.90;;;;;;5090056;28;20572;-83
2022/03/23 13:03:11;;;;;;;13.13;10.05;;;16.70;99.90;;;;;;5090271;28;20306;-85
2022/03/23 13:05:54;;;;;;;15.68;10.85;;;16.80;99.90;;;;;;5090305;28;20195;-79
2022/03/23 13:08:46;;;;;;;18.15;12.90;;;16.90;99.90;;;;;;5089002;28;20176;-82
2022/03/23 13:11:12;;;;;;;17.02;11.88;;;17.10;99.20;;;;;;5089760;28;20148;-80
2022/03/23 13:13:39;;;;;;;17.40;11.25;;;17.40;99.60;;;;;;5089397;28;20648;-78
2022/03/23 13:16:16;;;;;;;18.42;12.32;;;17.30;97.20;;;;;;5077272;28;20179;-81
2022/03/23 13:18:44;;;;;;;19.63;13.20;;;17.30;99.10;;;;;;5074954;28;20160;-82
2022/03/23 13:21:15;;;;;;;22.13;13.80;;;17.40;99.90;;;;;;5075070;28;20195;-82
2022/03/23 13:23:48;;;;;;;22.67;14.15;;;17.50;96.80;;;;;;5076364;28;20653;-81
2022/03/23 13:26:22;;;;;;;23.48;13.60;;;17.40;95.90;;;;;;5076375;28;20163;-81
2022/03/23 13:28:51;;;;;;;20.08;12.85;;;17.40;99.60;;;;;;5076094;28;20172;-80
2022/03/23 13:31:24;;;;;;;18.38;12.57;;;17.40;97.80;;;;;;5076136;28;20178;-82
2022/03/23 13:33:51;;;;;;;20.98;14.07;;;17.50;97.10;;;;;;5076152;28;20172;-81
2022/03/23 13:36:19;;;;;;;21.83;13.90;;;17.50;95.00;;;;;;5076073;28;20168;-81
2022/03/23 13:38:52;;;;;;;22.00;13.77;;;17.50;95.00;;;;;;5075893;28;20254;-81
2022/03/23 13:44:06;;;;;;;17.20;12.65;;;17.70;94.30;;;;;;5075886;28;20283;-81
2022/03/23 13:46:32;;;;;;;23.73;14.30;;;17.80;96.30;;;;;;5076037;28;20210;-90
2022/03/23 13:49:09;;;;;;;18.40;13.00;;;17.80;96.50;;;;;;5075965;28;20165;-88
2022/03/23 13:51:45;;;;;;;24.48;13.57;;;18.10;96.90;;;;;;5075942;28;20148;-87
2022/03/23 13:54:16;;;;;;;22.45;13.27;;;18.10;94.30;;;;;;5075824;28;20172;-87
2022/03/23 13:56:44;;;;;;;19.88;12.65;;;18.20;92.50;;;;;;5075588;28;20247;-80
2022/03/23 13:59:11;;;;;;;23.88;13.90;;;18.20;93.10;;;;;;5074237;28;20179;-87
2022/03/23 14:01:52;;;;;;;21.50;13.15;;;18.10;91.90;;;;;;5074233;28;20640;-84
2022/03/23 14:04:19;;;;;;;21.40;14.13;;;18.10;91.10;;;;;;5074019;28;20219;-83
2022/03/23 14:06:50;;;;;;;19.98;12.98;;;18.10;90.90;;;;;;5075294;28;20164;-84
2022/03/23 14:09:19;;;;;;;21.88;13.77;;;18.20;91.00;;;;;;5075411;28;20187;-81
2022/03/23 14:11:52;;;;;;;19.92;13.80;;;18.30;91.60;;;;;;5075426;28;20167;-84
2022/03/23 14:14:37;;;;;;;17.63;12.43;;;18.30;91.60;;;;;;5075242;28;20199;-83
2022/03/23 14:20:00;;;;;;;17.77;12.65;;;18.50;88.70;;;;;;5070614;28;20178;-77
2022/03/23 14:22:28;;;;;;;22.02;11.88;;;18.30;83.40;;;;;;5074978;28;20164;-77
2022/03/23 14:24:58;;;;;;;16.48;12.00;;;18.30;84.40;;;;;;5074865;28;20204;-78
2022/03/23 14:27:23;;;;;;;17.27;12.20;;;18.30;81.70;;;;;;5074227;28;20168;-86
2022/03/23 14:30:00;;;;;;;19.55;11.98;;;18.10;81.10;;;;;;5074962;28;20519;-83
2022/03/23 14:32:34;;;;;;;18.23;11.60;;;18.10;81.20;;;;;;5074899;28;20218;-82
2022/03/23 14:35:02;;;;;;;22.92;12.38;;;18.20;81.60;;;;;;5075167;28;20673;-83
2022/03/23 14:37:36;;;;;;;21.50;13.90;;;18.20;79.70;;;;;;5074872;28;20175;-83
2022/03/23 14:40:28;;;;;;;18.83;12.68;;;18.30;84.30;;;;;;5075000;28;20171;-81
2022/03/23 14:43:01;;;;;;;15.50;10.82;;;18.60;83.00;;;;;;5073455;28;20228;-82
2022/03/23 14:45:47;;;;;;;19.52;12.88;;;18.70;77.80;;;;;;5074833;28;20164;-75
2022/03/23 14:48:17;;;;;;;18.48;12.00;;;18.80;79.60;;;;;;5074645;28;20189;-80
2022/03/23 14:50:44;;;;;;;20.70;12.45;;;19.00;76.40;;;;;;5074532;28;20171;-83
2022/03/23 14:53:10;;;;;;;15.02;11.52;;;19.10;75.40;;;;;;5074572;28;20289;-82
2022/03/23 14:55:39;;;;;;;13.90;11.18;;;19.00;75.10;;;;;;5074570;28;20214;-81
2022/03/23 14:58:06;;;;;;;16.42;12.18;;;18.90;75.70;;;;;;5074619;28;20632;-83
2022/03/23 15:00:32;;;;;;;19.10;12.35;;;19.10;74.30;;;;;;5074544;28;20201;-80
2022/03/23 15:02:58;;;;;;;15.43;11.95;;;19.00;73.20;;;;;;5074272;28;20254;-83
2022/03/23 15:13:35;;;;;;;23.35;13.23;;;19.40;72.50;;;;;;5074193;28;20543;-93
2022/03/23 15:16:01;;;;;;;15.57;11.82;;;19.40;73.40;;;;;;5074213;28;20164;-81
2022/03/23 15:18:28;;;;;;;18.63;12.73;;;19.40;69.20;;;;;;5073212;28;20164;-81
2022/03/23 15:20:53;;;;;;;18.70;12.32;;;19.50;67.80;;;;;;5074138;28;20175;-80
2022/03/23 15:23:19;;;;;;;15.95;12.05;;;19.40;70.50;;;;;;5073957;28;20195;-79
2022/03/23 15:25:45;;;;;;;20.10;11.95;;;19.50;71.70;;;;;;5073916;28;20164;-79
2022/03/23 15:28:11;;;;;;;17.05;12.63;;;19.50;69.70;;;;;;5074078;28;20164;-82
2022/03/23 15:30:37;;;;;;;19.30;12.43;;;19.40;68.60;;;;;;5073925;28;20582;-78
2022/03/23 15:33:03;;;;;;;17.27;12.73;;;19.30;67.70;;;;;;5074332;28;20187;-81
2022/03/23 15:35:29;;;;;;;21.90;13.90;;;19.20;67.50;;;;;;5074203;28;20191;-81
2022/03/23 15:37:55;;;;;;;18.77;14.55;;;19.20;70.60;;;;;;5073655;28;20634;-77
2022/03/23 15:40:25;;;;;;;18.83;13.30;;;19.30;70.40;;;;;;5073723;28;20305;-80
2022/03/23 15:43:04;;;;;;;25.05;14.50;;;19.30;69.40;;;;;;5072271;28;20237;-81
2022/03/23 15:45:54;;;;;;;18.60;12.77;;;19.10;67.60;;;;;;5072114;28;20579;-81
2022/03/23 15:48:39;;;;;;;25.08;14.10;;;19.10;68.90;;;;;;5072912;28;20195;-80
2022/03/23 15:51:45;;;;;;;20.10;13.85;;;19.10;69.70;;;;;;5072204;28;20259;-81
2022/03/23 15:54:10;;;;;;;23.95;13.82;;;19.00;69.10;;;;;;5073276;28;20207;-74
2022/03/23 15:56:36;;;;;;;24.33;14.80;;;19.10;70.20;;;;;;5073435;28;20213;-74
2022/03/23 15:59:01;;;;;;;22.35;14.13;;;19.20;69.90;;;;;;5073619;28;20164;-74
2022/03/23 16:01:27;;;;;;;25.33;14.45;;;19.20;69.00;;;;;;5073645;28;20164;-73
2022/03/23 16:03:53;;;;;;;22.77;13.40;;;19.20;67.60;;;;;;5073577;28;20226;-73
2022/03/23 16:06:19;;;;;;;23.60;14.35;;;19.10;69.70;;;;;;5073479;28;20164;-73
2022/03/23 16:08:45;;;;;;;20.00;13.82;;;19.20;68.90;;;;;;5073502;28;20180;-73
2022/03/23 16:11:16;;;;;;;22.42;14.00;;;19.10;68.60;;;;;;5073538;28;20176;-72
2022/03/23 16:13:43;;;;;;;22.92;14.10;;;18.90;68.40;;;;;;5073249;28;20195;-72
2022/03/23 16:16:10;;;;;;;22.92;13.13;;;19.10;70.30;;;;;;5073553;28;20247;-82
2022/03/23 16:18:36;;;;;;;20.33;13.23;;;19.00;68.30;;;;;;5073310;28;20187;-82
2022/03/23 16:21:02;;;;;;;23.80;13.25;;;19.10;68.10;;;;;;5072194;28;20183;-82
2022/03/23 16:23:28;;;;;;;18.33;13.40;;;19.10;70.10;;;;;;5073578;28;20251;-82
2022/03/23 16:25:54;;;;;;;21.67;12.55;;;19.10;67.70;;;;;;5073865;28;20282;-81
2022/03/23 16:28:24;;;;;;;21.75;13.77;;;19.00;68.40;;;;;;5073271;28;20670;-82
2022/03/23 16:30:52;;;;;;;23.85;13.25;;;18.60;67.10;;;;;;5073288;28;20167;-81
2022/03/23 16:33:18;;;;;;;16.30;12.05;;;18.50;67.70;;;;;;5072152;28;20226;-82
2022/03/23 16:35:58;;;;;;;23.25;13.10;;;18.50;68.40;;;;;;5073601;28;20172;-82
2022/03/23 16:38:27;;;;;;;20.42;12.73;;;18.40;67.50;;;;;;5073430;28;20153;-82
2022/03/23 16:41:33;;;;;;;19.15;12.75;;;18.30;67.10;;;;;;5071966;28;20597;-82
2022/03/23 16:43:48;;;;;;;20.58;13.25;;;18.10;66.50;;;;;;5072832;28;20652;-82
2022/03/23 16:46:14;;;;;;;23.60;13.38;;;18.00;68.70;;;;;;5072963;28;20206;-82
2022/03/23 16:48:39;;;;;;;20.13;13.02;;;18.00;67.70;;;;;;5072030;28;20168;-81
2022/03/23 16:51:05;;;;;;;24.05;13.07;;;18.00;69.50;;;;;;5075157;28;20172;-81
2022/03/23 16:53:31;;;;;;;24.23;14.02;;;18.00;69.20;;;;;;5076762;28;20195;-81
2022/03/23 16:55:59;;;;;;;18.55;13.43;;;17.80;68.90;;;;;;5075438;28;20617;-81
2022/03/23 16:58:25;;;;;;;17.65;13.40;;;17.50;69.80;;;;;;5077008;28;20188;-81
2022/03/23 17:00:50;;;;;;;21.48;13.45;;;17.30;69.50;;;;;;5076677;28;20168;-81
2022/03/23 17:14:24;;;;;;;18.02;13.30;;;15.90;72.70;;;;;;5076338;28;20206;-81
2022/03/23 17:16:50;;;;;;;21.80;14.55;;;16.70;73.70;;;;;;5076534;28;20176;-81
2022/03/23 17:19:16;;;;;;;24.55;14.50;;;16.60;73.40;;;;;;5075194;28;20200;-80
2022/03/23 17:21:51;;;;;;;24.85;14.80;;;16.50;73.70;;;;;;5076316;28;20161;-81
2022/03/23 17:24:17;;;;;;;21.17;14.00;;;16.40;74.10;;;;;;5074060;28;20179;-80
2022/03/23 17:26:43;;;;;;;26.13;14.80;;;16.20;74.60;;;;;;5074943;28;20169;-80
2022/03/23 17:29:09;;;;;;;25.20;14.77;;;16.10;76.40;;;;;;5074067;28;20169;-80
2022/03/23 17:31:34;;;;;;;27.05;15.35;;;15.90;76.10;;;;;;5075125;28;20251;-80
2022/03/23 17:34:01;;;;;;;26.38;17.42;;;15.80;76.20;;;;;;5075507;28;20649;-81
2022/03/23 17:36:28;;;;;;;23.42;14.98;;;15.70;76.90;;;;;;5075410;28;20325;-80
2022/03/23 17:38:53;;;;;;;31.63;15.90;;;15.50;78.30;;;;;;5075659;28;20157;-80
2022/03/23 17:41:19;;;;;;;27.38;15.20;;;15.40;78.70;;;;;;5075712;28;20171;-80
2022/03/23 17:43:45;;;;;;;27.52;16.15;;;15.30;78.80;;;;;;5075572;28;20647;-80
2022/03/23 17:46:11;;;;;;;26.55;15.68;;;15.20;79.60;;;;;;5075517;28;20187;-80
2022/03/23 17:48:36;;;;;;;23.27;13.65;;;14.90;80.10;;;;;;5075520;28;20200;-80
2022/03/23 17:51:03;;;;;;;26.58;15.55;;;14.80;80.50;;;;;;5074426;28;20254;-80
2022/03/23 17:53:29;;;;;;;25.58;14.40;;;14.80;81.40;;;;;;5075444;28;20265;-80
2022/03/23 17:55:55;;;;;;;26.52;15.43;;;15.50;82.60;;;;;;5075410;28;20694;-80
